sensor_id;sensor_type;location;lat;lon;timestamp;temperature;humidity
4584;DHT22;2304;47.606;12.186;2023-07-29T00:03:18;18.50;92.10
4584;DHT22;2304;47.606;12.186;2023-07-29T00:08:20;18.50;92.20
4584;DHT22;2304;47.606;12.186;2023-07-29T00:13:23;18.50;92.10
4584;DHT22;2304;47.606;12.186;2023-07-29T00:18:25;18.40;91.70
4584;DHT22;2304;47.606;12.186;2023-07-29T00:23:29;18.40;92.20
4584;DHT22;2304;47.606;12.186;2023-07-29T00:28:32;18.30;92.50
4584;DHT22;2304;47.606;12.186;2023-07-29T00:33:34;18.30;92.80
4584;DHT22;2304;47.606;12.186;2023-07-29T00:38:36;18.30;93.40
4584;DHT22;2304;47.606;12.186;2023-07-29T00:43:39;18.40;92.90
4584;DHT22;2304;47.606;12.186;2023-07-29T00:48:41;18.30;93.60
4584;DHT22;2304;47.606;12.186;2023-07-29T00:53:43;18.20;93.90
4584;DHT22;2304;47.606;12.186;2023-07-29T00:58:46;18.30;94.20
4584;DHT22;2304;47.606;12.186;2023-07-29T01:03:48;18.20;94.20
4584;DHT22;2304;47.606;12.186;2023-07-29T01:08:55;18.20;93.70
4584;DHT22;2304;47.606;12.186;2023-07-29T01:14:08;18.20;93.90
4584;DHT22;2304;47.606;12.186;2023-07-29T01:19:24;18.30;93.90
4584;DHT22;2304;47.606;12.186;2023-07-29T01:24:29;18.30;93.50
4584;DHT22;2304;47.606;12.186;2023-07-29T01:29:31;18.30;92.60
4584;DHT22;2304;47.606;12.186;2023-07-29T01:34:41;18.30;92.40
4584;DHT22;2304;47.606;12.186;2023-07-29T01:39:49;18.30;92.20
4584;DHT22;2304;47.606;12.186;2023-07-29T01:44:52;18.30;92.70
4584;DHT22;2304;47.606;12.186;2023-07-29T01:49:54;18.20;93.10
4584;DHT22;2304;47.606;12.186;2023-07-29T01:54:57;18.20;93.70
4584;DHT22;2304;47.606;12.186;2023-07-29T01:59:59;18.10;94.60
4584;DHT22;2304;47.606;12.186;2023-07-29T02:05:01;18.00;94.80
4584;DHT22;2304;47.606;12.186;2023-07-29T02:10:05;18.10;94.60
4584;DHT22;2304;47.606;12.186;2023-07-29T02:15:08;18.10;94.00
4584;DHT22;2304;47.606;12.186;2023-07-29T02:20:11;18.10;93.30
4584;DHT22;2304;47.606;12.186;2023-07-29T02:25:14;18.10;92.80
4584;DHT22;2304;47.606;12.186;2023-07-29T02:30:16;18.00;92.80
4584;DHT22;2304;47.606;12.186;2023-07-29T02:35:18;17.90;92.80
4584;DHT22;2304;47.606;12.186;2023-07-29T02:40:21;17.90;93.00
4584;DHT22;2304;47.606;12.186;2023-07-29T02:45:25;17.90;94.10
4584;DHT22;2304;47.606;12.186;2023-07-29T02:50:27;17.90;92.90
4584;DHT22;2304;47.606;12.186;2023-07-29T02:55:30;17.90;92.70
4584;DHT22;2304;47.606;12.186;2023-07-29T03:00:32;18.00;92.30
4584;DHT22;2304;47.606;12.186;2023-07-29T03:05:34;17.90;92.40
4584;DHT22;2304;47.606;12.186;2023-07-29T03:10:39;17.90;92.70
4584;DHT22;2304;47.606;12.186;2023-07-29T03:15:42;17.90;92.60
4584;DHT22;2304;47.606;12.186;2023-07-29T03:20:44;17.90;93.10
4584;DHT22;2304;47.606;12.186;2023-07-29T03:25:49;17.90;94.20
4584;DHT22;2304;47.606;12.186;2023-07-29T03:30:57;17.90;93.20
4584;DHT22;2304;47.606;12.186;2023-07-29T03:35:59;17.90;93.10
4584;DHT22;2304;47.606;12.186;2023-07-29T03:41:02;17.90;93.30
4584;DHT22;2304;47.606;12.186;2023-07-29T03:46:04;17.70;93.80
4584;DHT22;2304;47.606;12.186;2023-07-29T03:51:06;17.70;94.40
4584;DHT22;2304;47.606;12.186;2023-07-29T03:56:10;17.60;94.60
4584;DHT22;2304;47.606;12.186;2023-07-29T04:01:11;17.70;94.90
4584;DHT22;2304;47.606;12.186;2023-07-29T04:06:14;17.70;94.70
4584;DHT22;2304;47.606;12.186;2023-07-29T04:11:17;17.60;94.50
4584;DHT22;2304;47.606;12.186;2023-07-29T04:16:19;17.60;95.60
4584;DHT22;2304;47.606;12.186;2023-07-29T04:21:21;17.50;96.00
4584;DHT22;2304;47.606;12.186;2023-07-29T04:26:24;17.50;95.80
4584;DHT22;2304;47.606;12.186;2023-07-29T04:31:26;17.50;95.70
4584;DHT22;2304;47.606;12.186;2023-07-29T04:36:28;17.50;95.60
4584;DHT22;2304;47.606;12.186;2023-07-29T04:41:31;17.60;95.80
4584;DHT22;2304;47.606;12.186;2023-07-29T04:46:33;17.60;96.00
4584;DHT22;2304;47.606;12.186;2023-07-29T04:51:35;17.60;96.00
4584;DHT22;2304;47.606;12.186;2023-07-29T04:56:39;17.70;95.50
4584;DHT22;2304;47.606;12.186;2023-07-29T05:01:40;17.70;95.80
4584;DHT22;2304;47.606;12.186;2023-07-29T05:06:43;17.80;96.30
4584;DHT22;2304;47.606;12.186;2023-07-29T05:11:46;17.90;95.70
4584;DHT22;2304;47.606;12.186;2023-07-29T05:16:49;17.90;94.60
4584;DHT22;2304;47.606;12.186;2023-07-29T05:21:51;17.90;94.40
4584;DHT22;2304;47.606;12.186;2023-07-29T05:26:54;17.80;93.90
4584;DHT22;2304;47.606;12.186;2023-07-29T05:31:56;17.90;94.80
4584;DHT22;2304;47.606;12.186;2023-07-29T05:36:58;17.90;94.60
4584;DHT22;2304;47.606;12.186;2023-07-29T05:42:02;18.00;93.60
4584;DHT22;2304;47.606;12.186;2023-07-29T05:47:04;18.20;93.40
4584;DHT22;2304;47.606;12.186;2023-07-29T05:52:07;18.30;92.60
4584;DHT22;2304;47.606;12.186;2023-07-29T05:57:10;18.30;92.50
4584;DHT22;2304;47.606;12.186;2023-07-29T06:02:12;18.40;92.50
4584;DHT22;2304;47.606;12.186;2023-07-29T06:07:14;18.70;91.00
4584;DHT22;2304;47.606;12.186;2023-07-29T06:12:18;18.70;89.80
4584;DHT22;2304;47.606;12.186;2023-07-29T06:17:20;19.00;90.60
4584;DHT22;2304;47.606;12.186;2023-07-29T06:22:22;19.20;90.00
4584;DHT22;2304;47.606;12.186;2023-07-29T06:27:25;19.20;89.00
4584;DHT22;2304;47.606;12.186;2023-07-29T06:32:27;19.30;88.40
4584;DHT22;2304;47.606;12.186;2023-07-29T06:37:29;19.40;87.60
4584;DHT22;2304;47.606;12.186;2023-07-29T06:42:32;19.60;87.30
4584;DHT22;2304;47.606;12.186;2023-07-29T06:47:34;19.60;84.40
4584;DHT22;2304;47.606;12.186;2023-07-29T06:52:36;19.50;84.80
4584;DHT22;2304;47.606;12.186;2023-07-29T06:57:40;19.30;85.70
4584;DHT22;2304;47.606;12.186;2023-07-29T07:02:42;19.10;87.10
4584;DHT22;2304;47.606;12.186;2023-07-29T07:07:44;19.20;87.40
4584;DHT22;2304;47.606;12.186;2023-07-29T07:12:47;19.30;87.20
4584;DHT22;2304;47.606;12.186;2023-07-29T07:17:49;19.30;86.30
4584;DHT22;2304;47.606;12.186;2023-07-29T07:22:52;19.20;86.50
4584;DHT22;2304;47.606;12.186;2023-07-29T07:27:55;19.30;87.80
4584;DHT22;2304;47.606;12.186;2023-07-29T07:32:57;19.40;89.30
4584;DHT22;2304;47.606;12.186;2023-07-29T07:37:59;19.30;89.30
4584;DHT22;2304;47.606;12.186;2023-07-29T07:43:05;19.20;88.20
4584;DHT22;2304;47.606;12.186;2023-07-29T07:48:07;19.20;89.00
4584;DHT22;2304;47.606;12.186;2023-07-29T07:53:10;19.20;88.50
4584;DHT22;2304;47.606;12.186;2023-07-29T07:58:14;19.30;87.70
4584;DHT22;2304;47.606;12.186;2023-07-29T08:03:17;19.40;88.50
4584;DHT22;2304;47.606;12.186;2023-07-29T08:08:19;19.50;88.10
4584;DHT22;2304;47.606;12.186;2023-07-29T08:13:22;19.50;88.80
4584;DHT22;2304;47.606;12.186;2023-07-29T08:18:24;19.50;88.50
4584;DHT22;2304;47.606;12.186;2023-07-29T08:23:26;19.70;88.70
4584;DHT22;2304;47.606;12.186;2023-07-29T08:28:31;19.70;86.50
4584;DHT22;2304;47.606;12.186;2023-07-29T08:33:34;19.70;86.60
4584;DHT22;2304;47.606;12.186;2023-07-29T08:38:35;19.90;86.70
4584;DHT22;2304;47.606;12.186;2023-07-29T08:43:41;20.10;85.20
4584;DHT22;2304;47.606;12.186;2023-07-29T08:48:46;20.30;83.30
4584;DHT22;2304;47.606;12.186;2023-07-29T08:53:48;20.70;81.60
4584;DHT22;2304;47.606;12.186;2023-07-29T08:58:52;20.70;79.30
4584;DHT22;2304;47.606;12.186;2023-07-29T09:03:54;20.70;79.20
4584;DHT22;2304;47.606;12.186;2023-07-29T09:08:56;20.90;79.60
4584;DHT22;2304;47.606;12.186;2023-07-29T09:14:01;21.60;78.00
4584;DHT22;2304;47.606;12.186;2023-07-29T09:19:03;21.80;73.70
4584;DHT22;2304;47.606;12.186;2023-07-29T09:24:05;21.70;73.40
4584;DHT22;2304;47.606;12.186;2023-07-29T09:29:09;21.50;75.30
4584;DHT22;2304;47.606;12.186;2023-07-29T09:34:15;21.30;74.90
4584;DHT22;2304;47.606;12.186;2023-07-29T09:39:17;21.30;75.60
4584;DHT22;2304;47.606;12.186;2023-07-29T09:44:20;21.30;75.80
4584;DHT22;2304;47.606;12.186;2023-07-29T09:49:22;21.40;77.40
4584;DHT22;2304;47.606;12.186;2023-07-29T09:54:25;21.60;76.60
4584;DHT22;2304;47.606;12.186;2023-07-29T09:59:28;21.70;75.50
4584;DHT22;2304;47.606;12.186;2023-07-29T10:04:35;21.90;73.60
4584;DHT22;2304;47.606;12.186;2023-07-29T10:09:38;22.00;71.60
4584;DHT22;2304;47.606;12.186;2023-07-29T10:14:42;22.30;71.10
4584;DHT22;2304;47.606;12.186;2023-07-29T10:19:46;22.60;70.50
4584;DHT22;2304;47.606;12.186;2023-07-29T10:24:49;23.00;68.60
4584;DHT22;2304;47.606;12.186;2023-07-29T10:29:55;23.50;67.30
4584;DHT22;2304;47.606;12.186;2023-07-29T10:34:57;23.50;65.80
4584;DHT22;2304;47.606;12.186;2023-07-29T10:39:59;23.50;65.90
4584;DHT22;2304;47.606;12.186;2023-07-29T10:45:17;23.40;67.10
4584;DHT22;2304;47.606;12.186;2023-07-29T10:50:21;23.70;65.10
4584;DHT22;2304;47.606;12.186;2023-07-29T10:55:28;24.20;65.60
4584;DHT22;2304;47.606;12.186;2023-07-29T11:00:31;24.60;63.90
4584;DHT22;2304;47.606;12.186;2023-07-29T11:05:45;24.70;65.10
4584;DHT22;2304;47.606;12.186;2023-07-29T11:11:05;25.00;66.10
4584;DHT22;2304;47.606;12.186;2023-07-29T11:16:10;25.10;62.60
4584;DHT22;2304;47.606;12.186;2023-07-29T11:21:17;25.20;62.90
4584;DHT22;2304;47.606;12.186;2023-07-29T11:26:20;25.40;61.00
4584;DHT22;2304;47.606;12.186;2023-07-29T11:31:23;25.50;59.90
4584;DHT22;2304;47.606;12.186;2023-07-29T11:36:45;25.50;58.60
4584;DHT22;2304;47.606;12.186;2023-07-29T11:41:47;25.90;59.40
4584;DHT22;2304;47.606;12.186;2023-07-29T11:46:50;25.80;59.40
4584;DHT22;2304;47.606;12.186;2023-07-29T11:51:53;25.80;58.50
4584;DHT22;2304;47.606;12.186;2023-07-29T11:56:55;25.60;58.50
4584;DHT22;2304;47.606;12.186;2023-07-29T12:01:59;25.70;59.30
4584;DHT22;2304;47.606;12.186;2023-07-29T12:07:02;25.60;60.10
4584;DHT22;2304;47.606;12.186;2023-07-29T12:12:05;25.90;59.20
4584;DHT22;2304;47.606;12.186;2023-07-29T12:17:09;26.30;61.00
4584;DHT22;2304;47.606;12.186;2023-07-29T12:22:11;26.30;58.00
4584;DHT22;2304;47.606;12.186;2023-07-29T12:27:14;26.50;60.00
4584;DHT22;2304;47.606;12.186;2023-07-29T12:32:17;26.70;55.10
4584;DHT22;2304;47.606;12.186;2023-07-29T12:37:19;26.70;57.10
4584;DHT22;2304;47.606;12.186;2023-07-29T12:42:22;26.50;59.80
4584;DHT22;2304;47.606;12.186;2023-07-29T12:47:25;26.70;60.50
4584;DHT22;2304;47.606;12.186;2023-07-29T12:52:27;26.80;59.10
4584;DHT22;2304;47.606;12.186;2023-07-29T12:57:29;27.20;59.00
4584;DHT22;2304;47.606;12.186;2023-07-29T13:02:32;27.50;59.40
4584;DHT22;2304;47.606;12.186;2023-07-29T13:07:34;27.70;61.70
4584;DHT22;2304;47.606;12.186;2023-07-29T13:12:36;27.70;59.60
4584;DHT22;2304;47.606;12.186;2023-07-29T13:17:39;27.90;61.90
4584;DHT22;2304;47.606;12.186;2023-07-29T13:22:42;28.00;60.40
4584;DHT22;2304;47.606;12.186;2023-07-29T13:27:44;28.10;61.00
4584;DHT22;2304;47.606;12.186;2023-07-29T13:32:47;28.00;59.60
4584;DHT22;2304;47.606;12.186;2023-07-29T13:37:49;27.90;57.60
4584;DHT22;2304;47.606;12.186;2023-07-29T13:42:51;28.30;59.80
4584;DHT22;2304;47.606;12.186;2023-07-29T13:47:54;28.20;58.60
4584;DHT22;2304;47.606;12.186;2023-07-29T13:52:56;28.10;57.40
4584;DHT22;2304;47.606;12.186;2023-07-29T13:57:58;27.80;55.60
4584;DHT22;2304;47.606;12.186;2023-07-29T14:03:01;27.70;56.60
4584;DHT22;2304;47.606;12.186;2023-07-29T14:08:03;27.50;56.30
4584;DHT22;2304;47.606;12.186;2023-07-29T14:13:05;27.40;56.70
4584;DHT22;2304;47.606;12.186;2023-07-29T14:18:09;27.40;57.00
4584;DHT22;2304;47.606;12.186;2023-07-29T14:23:11;27.40;59.10
4584;DHT22;2304;47.606;12.186;2023-07-29T14:28:14;27.40;57.40
4584;DHT22;2304;47.606;12.186;2023-07-29T14:33:17;27.30;58.00
4584;DHT22;2304;47.606;12.186;2023-07-29T14:38:19;27.20;57.70
4584;DHT22;2304;47.606;12.186;2023-07-29T14:43:21;27.20;59.00
4584;DHT22;2304;47.606;12.186;2023-07-29T14:48:24;27.10;59.00
4584;DHT22;2304;47.606;12.186;2023-07-29T14:53:26;26.90;59.00
4584;DHT22;2304;47.606;12.186;2023-07-29T14:58:28;26.80;59.00
4584;DHT22;2304;47.606;12.186;2023-07-29T15:03:32;26.60;59.60
4584;DHT22;2304;47.606;12.186;2023-07-29T15:08:34;26.30;61.70
4584;DHT22;2304;47.606;12.186;2023-07-29T15:13:35;26.00;63.40
4584;DHT22;2304;47.606;12.186;2023-07-29T15:18:39;25.70;65.10
4584;DHT22;2304;47.606;12.186;2023-07-29T15:23:40;25.50;66.40
4584;DHT22;2304;47.606;12.186;2023-07-29T15:28:42;25.20;67.30
4584;DHT22;2304;47.606;12.186;2023-07-29T15:33:45;25.10;67.70
4584;DHT22;2304;47.606;12.186;2023-07-29T15:38:47;24.90;69.80
4584;DHT22;2304;47.606;12.186;2023-07-29T15:43:49;24.80;71.70
4584;DHT22;2304;47.606;12.186;2023-07-29T15:48:53;24.60;73.90
4584;DHT22;2304;47.606;12.186;2023-07-29T15:53:56;24.30;74.50
4584;DHT22;2304;47.606;12.186;2023-07-29T15:58:57;24.00;75.50
4584;DHT22;2304;47.606;12.186;2023-07-29T16:04:01;23.70;76.30
4584;DHT22;2304;47.606;12.186;2023-07-29T16:09:03;23.50;76.30
4584;DHT22;2304;47.606;12.186;2023-07-29T16:14:06;23.40;76.10
4584;DHT22;2304;47.606;12.186;2023-07-29T16:19:10;23.40;77.30
4584;DHT22;2304;47.606;12.186;2023-07-29T16:24:11;23.50;77.50
4584;DHT22;2304;47.606;12.186;2023-07-29T16:29:16;23.50;77.30
4584;DHT22;2304;47.606;12.186;2023-07-29T16:34:19;23.50;78.20
4584;DHT22;2304;47.606;12.186;2023-07-29T16:39:21;23.40;78.50
4584;DHT22;2304;47.606;12.186;2023-07-29T16:44:23;23.20;78.60
4584;DHT22;2304;47.606;12.186;2023-07-29T16:49:26;23.00;78.60
4584;DHT22;2304;47.606;12.186;2023-07-29T16:54:28;22.90;78.50
4584;DHT22;2304;47.606;12.186;2023-07-29T16:59:30;22.90;78.60
4584;DHT22;2304;47.606;12.186;2023-07-29T17:04:33;22.90;79.70
4584;DHT22;2304;47.606;12.186;2023-07-29T17:09:35;22.90;79.70
4584;DHT22;2304;47.606;12.186;2023-07-29T17:14:37;22.90;79.50
4584;DHT22;2304;47.606;12.186;2023-07-29T17:19:40;22.90;80.00
4584;DHT22;2304;47.606;12.186;2023-07-29T17:24:42;22.80;79.70
4584;DHT22;2304;47.606;12.186;2023-07-29T17:29:44;22.70;80.60
4584;DHT22;2304;47.606;12.186;2023-07-29T17:34:47;22.70;82.00
4584;DHT22;2304;47.606;12.186;2023-07-29T17:39:49;22.60;81.20
4584;DHT22;2304;47.606;12.186;2023-07-29T17:44:53;22.60;81.80
4584;DHT22;2304;47.606;12.186;2023-07-29T17:49:57;22.60;81.60
4584;DHT22;2304;47.606;12.186;2023-07-29T17:54:59;22.50;82.30
4584;DHT22;2304;47.606;12.186;2023-07-29T18:00:00;22.50;83.10
4584;DHT22;2304;47.606;12.186;2023-07-29T18:05:06;22.30;84.80
4584;DHT22;2304;47.606;12.186;2023-07-29T18:10:09;22.20;85.40
4584;DHT22;2304;47.606;12.186;2023-07-29T18:15:11;22.10;85.80
4584;DHT22;2304;47.606;12.186;2023-07-29T18:20:14;22.00;86.00
4584;DHT22;2304;47.606;12.186;2023-07-29T18:25:16;21.80;84.20
4584;DHT22;2304;47.606;12.186;2023-07-29T18:30:18;21.70;83.20
4584;DHT22;2304;47.606;12.186;2023-07-29T18:35:21;21.50;85.80
4584;DHT22;2304;47.606;12.186;2023-07-29T18:40:23;21.50;85.20
4584;DHT22;2304;47.606;12.186;2023-07-29T18:45:25;21.50;85.40
4584;DHT22;2304;47.606;12.186;2023-07-29T18:50:31;21.50;85.80
4584;DHT22;2304;47.606;12.186;2023-07-29T18:55:33;21.40;87.10
4584;DHT22;2304;47.606;12.186;2023-07-29T19:00:35;21.40;87.50
4584;DHT22;2304;47.606;12.186;2023-07-29T19:05:39;21.20;88.70
4584;DHT22;2304;47.606;12.186;2023-07-29T19:10:41;21.10;86.10
4584;DHT22;2304;47.606;12.186;2023-07-29T19:15:49;21.00;85.80
4584;DHT22;2304;47.606;12.186;2023-07-29T19:20:53;21.00;86.20
4584;DHT22;2304;47.606;12.186;2023-07-29T19:25:55;21.10;86.70
4584;DHT22;2304;47.606;12.186;2023-07-29T19:30:57;21.00;87.40
4584;DHT22;2304;47.606;12.186;2023-07-29T19:36:01;21.00;86.90
4584;DHT22;2304;47.606;12.186;2023-07-29T19:41:05;21.00;86.90
4584;DHT22;2304;47.606;12.186;2023-07-29T19:46:08;21.00;86.90
4584;DHT22;2304;47.606;12.186;2023-07-29T19:51:11;21.00;86.60
4584;DHT22;2304;47.606;12.186;2023-07-29T19:56:13;21.00;87.00
4584;DHT22;2304;47.606;12.186;2023-07-29T20:01:15;21.00;86.70
4584;DHT22;2304;47.606;12.186;2023-07-29T20:06:18;20.90;86.20
4584;DHT22;2304;47.606;12.186;2023-07-29T20:11:20;20.90;85.00
4584;DHT22;2304;47.606;12.186;2023-07-29T20:16:22;20.90;84.90
4584;DHT22;2304;47.606;12.186;2023-07-29T20:21:25;20.80;85.60
4584;DHT22;2304;47.606;12.186;2023-07-29T20:26:27;20.80;85.80
4584;DHT22;2304;47.606;12.186;2023-07-29T20:31:32;20.80;86.60
4584;DHT22;2304;47.606;12.186;2023-07-29T20:36:35;20.80;87.10
4584;DHT22;2304;47.606;12.186;2023-07-29T20:41:37;20.80;87.30
4584;DHT22;2304;47.606;12.186;2023-07-29T20:46:39;20.70;87.10
4584;DHT22;2304;47.606;12.186;2023-07-29T20:51:43;20.70;86.70
4584;DHT22;2304;47.606;12.186;2023-07-29T20:56:44;20.60;86.60
4584;DHT22;2304;47.606;12.186;2023-07-29T21:01:46;20.50;86.10
4584;DHT22;2304;47.606;12.186;2023-07-29T21:06:49;20.50;85.20
4584;DHT22;2304;47.606;12.186;2023-07-29T21:11:52;20.40;85.80
4584;DHT22;2304;47.606;12.186;2023-07-29T21:16:55;20.30;87.20
4584;DHT22;2304;47.606;12.186;2023-07-29T21:21:58;20.30;87.60
4584;DHT22;2304;47.606;12.186;2023-07-29T21:27:00;20.30;88.80
4584;DHT22;2304;47.606;12.186;2023-07-29T21:32:02;20.20;90.50
4584;DHT22;2304;47.606;12.186;2023-07-29T21:37:05;20.10;91.50
4584;DHT22;2304;47.606;12.186;2023-07-29T21:42:07;20.10;91.40
4584;DHT22;2304;47.606;12.186;2023-07-29T21:47:09;20.10;91.60
4584;DHT22;2304;47.606;12.186;2023-07-29T21:52:12;20.10;91.40
4584;DHT22;2304;47.606;12.186;2023-07-29T21:57:14;20.10;91.80
4584;DHT22;2304;47.606;12.186;2023-07-29T22:02:16;20.00;91.90
4584;DHT22;2304;47.606;12.186;2023-07-29T22:07:19;19.90;91.60
4584;DHT22;2304;47.606;12.186;2023-07-29T22:12:21;20.00;92.40
4584;DHT22;2304;47.606;12.186;2023-07-29T22:17:24;20.00;92.30
4584;DHT22;2304;47.606;12.186;2023-07-29T22:22:27;19.90;92.10
4584;DHT22;2304;47.606;12.186;2023-07-29T22:27:28;19.90;93.80
4584;DHT22;2304;47.606;12.186;2023-07-29T22:32:30;19.80;94.00
4584;DHT22;2304;47.606;12.186;2023-07-29T22:37:34;19.90;94.20
4584;DHT22;2304;47.606;12.186;2023-07-29T22:42:36;19.90;93.60
4584;DHT22;2304;47.606;12.186;2023-07-29T22:47:38;19.90;93.20
4584;DHT22;2304;47.606;12.186;2023-07-29T22:52:41;19.90;93.50
4584;DHT22;2304;47.606;12.186;2023-07-29T22:57:43;19.90;93.70
4584;DHT22;2304;47.606;12.186;2023-07-29T23:02:45;19.90;93.40
4584;DHT22;2304;47.606;12.186;2023-07-29T23:07:48;19.90;93.90
4584;DHT22;2304;47.606;12.186;2023-07-29T23:12:50;19.90;92.90
4584;DHT22;2304;47.606;12.186;2023-07-29T23:17:52;19.90;92.80
4584;DHT22;2304;47.606;12.186;2023-07-29T23:22:55;19.80;92.70
4584;DHT22;2304;47.606;12.186;2023-07-29T23:27:57;19.80;92.30
4584;DHT22;2304;47.606;12.186;2023-07-29T23:32:59;19.80;91.90
4584;DHT22;2304;47.606;12.186;2023-07-29T23:38:02;19.70;92.60
4584;DHT22;2304;47.606;12.186;2023-07-29T23:43:04;19.70;93.40
4584;DHT22;2304;47.606;12.186;2023-07-29T23:48:06;19.70;93.90
4584;DHT22;2304;47.606;12.186;2023-07-29T23:53:09;19.60;94.20
4584;DHT22;2304;47.606;12.186;2023-07-29T23:58:11;19.60;94.10
